createdAt,value
2018-12-04T00:00:08.225Z,11.91
2018-12-04T00:01:09.436Z,11.88
2018-12-04T00:02:08.178Z,11.86
2018-12-04T00:03:08.195Z,11.91
2018-12-04T00:04:07.928Z,11.9
2018-12-04T00:05:08.186Z,11.88
2018-12-04T00:06:08.182Z,11.88
2018-12-04T00:07:08.165Z,11.91
2018-12-04T00:08:08.163Z,11.9
2018-12-04T00:09:07.942Z,11.88
2018-12-04T00:10:08.156Z,11.9
2018-12-04T00:11:07.904Z,11.87
2018-12-04T00:12:08.141Z,11.81
2018-12-04T00:13:07.904Z,11.73
2018-12-04T00:14:07.895Z,11.84
2018-12-04T00:15:08.142Z,11.83
2018-12-04T00:16:08.144Z,11.83
2018-12-04T00:17:07.876Z,11.84
2018-12-04T00:18:07.865Z,11.86
2018-12-04T00:19:07.859Z,11.72
2018-12-04T00:20:08.110Z,11.81
2018-12-04T00:21:07.859Z,11.69
2018-12-04T00:22:08.096Z,11.78
2018-12-04T00:23:08.109Z,11.78
2018-12-04T00:24:07.851Z,11.8
2018-12-04T00:25:07.856Z,11.78
2018-12-04T00:26:08.130Z,11.78
2018-12-04T00:27:08.087Z,11.7
2018-12-04T00:28:07.845Z,11.73
2018-12-04T00:29:08.101Z,11.69
2018-12-04T00:30:07.835Z,11.77
2018-12-04T00:31:07.826Z,11.66
2018-12-04T00:32:08.084Z,11.7
2018-12-04T00:33:07.817Z,11.68
2018-12-04T00:34:08.070Z,11.55
2018-12-04T00:35:07.800Z,11.65
2018-12-04T00:36:08.040Z,11.59
2018-12-04T00:37:07.806Z,11.65
2018-12-04T00:38:07.793Z,11.66
2018-12-04T00:39:07.802Z,11.65
2018-12-04T00:40:08.043Z,11.69
2018-12-04T00:41:07.542Z,11.68
2018-12-04T00:42:08.025Z,11.65
2018-12-04T00:43:07.781Z,11.65
2018-12-04T00:44:08.004Z,11.57
2018-12-04T00:45:07.787Z,11.59
2018-12-04T00:46:07.504Z,11.52
2018-12-04T00:47:07.763Z,11.51
2018-12-04T00:48:07.745Z,11.47
2018-12-04T00:49:08.007Z,11.45
2018-12-04T00:50:07.493Z,11.41
2018-12-04T00:51:07.987Z,11.4
2018-12-04T00:52:07.531Z,11.29
2018-12-04T00:53:07.730Z,11.35
2018-12-04T00:54:07.980Z,11.3
2018-12-04T00:55:07.725Z,11.27
2018-12-04T00:56:07.469Z,11.25
2018-12-04T00:57:07.972Z,11.1
2018-12-04T00:58:08.022Z,11.12
2018-12-04T00:59:07.960Z,11.15
2018-12-04T01:00:07.737Z,11.22
2018-12-04T01:01:07.942Z,11.12
2018-12-04T01:02:07.942Z,11.12
2018-12-04T01:03:07.688Z,11.12
2018-12-04T01:04:07.674Z,11.1
2018-12-04T01:05:07.438Z,11.17
2018-12-04T01:06:07.772Z,11.1
2018-12-04T01:07:07.676Z,11.17
2018-12-04T01:08:07.674Z,11.15
2018-12-04T01:09:07.665Z,11.26
2018-12-04T01:10:07.906Z,11.23
2018-12-04T01:11:07.647Z,11.25
2018-12-04T01:12:07.433Z,11.27
2018-12-04T01:13:07.667Z,11.25
2018-12-04T01:14:07.642Z,11.25
2018-12-04T01:15:07.693Z,11.23
2018-12-04T01:16:07.888Z,11.17
2018-12-04T01:17:07.871Z,11.12
2018-12-04T01:18:07.622Z,11.18
2018-12-04T01:19:07.872Z,11.1
2018-12-04T01:20:07.387Z,11.12
2018-12-04T01:21:07.873Z,11.19
2018-12-04T01:22:07.859Z,11.04
2018-12-04T01:23:07.616Z,11.1
2018-12-04T01:24:07.847Z,11.08
2018-12-04T01:25:07.843Z,10.94
2018-12-04T01:26:07.594Z,11.07
2018-12-04T01:27:07.826Z,11.04
2018-12-04T01:28:07.830Z,11
2018-12-04T01:29:07.837Z,10.94
2018-12-04T01:30:07.566Z,11.05
2018-12-04T01:31:07.566Z,11.05
2018-12-04T01:32:07.557Z,11.05
2018-12-04T01:33:07.567Z,10.97
2018-12-04T01:34:07.807Z,11.08
2018-12-04T01:35:07.550Z,11.02
2018-12-04T01:36:07.780Z,11.11
2018-12-04T01:37:07.532Z,10.96
2018-12-04T01:38:07.782Z,11.08
2018-12-04T01:39:07.522Z,11.07
2018-12-04T01:40:07.286Z,10.93
2018-12-04T01:41:07.777Z,10.93
2018-12-04T01:42:07.509Z,10.97
2018-12-04T01:43:07.258Z,10.99
2018-12-04T01:44:07.752Z,10.78
2018-12-04T01:45:07.777Z,10.84
2018-12-04T01:46:07.492Z,10.72
2018-12-04T01:47:07.756Z,10.72
2018-12-04T01:48:07.493Z,10.74
2018-12-04T01:49:07.241Z,10.63
2018-12-04T01:50:07.478Z,10.59
2018-12-04T01:51:07.473Z,10.57
2018-12-04T01:52:07.715Z,10.59
2018-12-04T01:53:07.725Z,10.56
2018-12-04T01:54:07.456Z,10.54
2018-12-04T01:55:07.488Z,10.57
2018-12-04T01:56:07.692Z,10.49
2018-12-04T01:57:07.695Z,10.54
2018-12-04T01:58:07.707Z,10.57
2018-12-04T01:59:07.694Z,10.57
2018-12-04T02:00:07.188Z,10.53
2018-12-04T02:01:07.448Z,10.59
2018-12-04T02:02:07.167Z,10.53
2018-12-04T02:03:07.665Z,10.56
2018-12-04T02:04:07.409Z,10.53
2018-12-04T02:05:07.175Z,10.61
2018-12-04T02:06:07.397Z,10.63
2018-12-04T02:07:07.397Z,10.57
2018-12-04T02:08:07.643Z,10.56
2018-12-04T02:09:07.133Z,10.54
2018-12-04T02:10:07.381Z,10.53
2018-12-04T02:11:07.380Z,10.53
2018-12-04T02:12:07.620Z,10.46
2018-12-04T02:13:07.373Z,10.48
2018-12-04T02:14:07.367Z,10.6
2018-12-04T02:15:07.605Z,10.59
2018-12-04T02:16:07.599Z,10.64
2018-12-04T02:17:07.615Z,10.57
2018-12-04T02:18:07.344Z,10.59
2018-12-04T02:19:07.330Z,10.67
2018-12-04T02:20:07.585Z,10.69
2018-12-04T02:21:07.780Z,10.59
2018-12-04T02:22:07.336Z,10.59
2018-12-04T02:23:07.996Z,10.59
2018-12-04T02:24:07.303Z,10.6
2018-12-04T02:25:07.308Z,10.56
2018-12-04T02:26:07.296Z,10.63
2018-12-04T02:27:07.579Z,10.53
2018-12-04T02:28:07.279Z,10.54
2018-12-04T02:29:07.533Z,10.57
2018-12-04T02:30:07.541Z,10.61
2018-12-04T02:31:07.018Z,10.56
2018-12-04T02:32:07.528Z,10.63
2018-12-04T02:33:07.283Z,10.57
2018-12-04T02:34:07.514Z,10.61
2018-12-04T02:35:07.266Z,10.63
2018-12-04T02:36:06.995Z,10.59
2018-12-04T02:37:07.249Z,10.64
2018-12-04T02:38:07.492Z,10.67
2018-12-04T02:39:07.507Z,10.63
2018-12-04T02:40:07.477Z,10.61
2018-12-04T02:41:07.463Z,10.67
2018-12-04T02:42:07.481Z,10.54
2018-12-04T02:43:07.464Z,10.64
2018-12-04T02:44:07.462Z,10.75
2018-12-04T02:45:07.224Z,10.75
2018-12-04T02:46:07.441Z,10.72
2018-12-04T02:47:07.192Z,10.72
2018-12-04T02:48:07.442Z,10.75
2018-12-04T02:49:07.467Z,10.81
2018-12-04T02:50:07.450Z,10.78
2018-12-04T02:51:07.420Z,10.81
2018-12-04T02:52:07.166Z,10.9
2018-12-04T02:53:07.194Z,10.82
2018-12-04T02:54:06.925Z,10.86
2018-12-04T02:55:07.405Z,10.84
2018-12-04T02:56:07.392Z,10.92
2018-12-04T02:57:07.141Z,10.81
2018-12-04T02:58:07.150Z,10.9
2018-12-04T02:59:07.395Z,10.96
2018-12-04T03:00:07.382Z,10.9
2018-12-04T03:01:07.380Z,10.89
2018-12-04T03:02:07.390Z,10.96
2018-12-04T03:03:07.380Z,10.94
2018-12-04T03:04:07.120Z,10.92
2018-12-04T03:05:06.864Z,10.99
2018-12-04T03:06:07.114Z,11.08
2018-12-04T03:07:07.383Z,11
2018-12-04T03:08:07.354Z,10.94
2018-12-04T03:09:07.096Z,10.94
2018-12-04T03:10:07.086Z,10.94
2018-12-04T03:11:07.367Z,10.99
2018-12-04T03:12:07.070Z,10.9
2018-12-04T03:13:07.362Z,10.99
2018-12-04T03:14:07.087Z,10.92
2018-12-04T03:15:07.058Z,10.89
2018-12-04T03:16:06.810Z,10.93
2018-12-04T03:17:06.821Z,10.89
2018-12-04T03:18:07.301Z,10.93
2018-12-04T03:19:07.302Z,10.96
2018-12-04T03:20:07.366Z,10.96
2018-12-04T03:21:07.290Z,10.9
2018-12-04T03:22:07.042Z,10.87
2018-12-04T03:23:07.274Z,10.92
2018-12-04T03:24:06.775Z,10.92
2018-12-04T03:25:07.293Z,10.97
2018-12-04T03:26:06.774Z,10.9
2018-12-04T03:27:06.998Z,10.94
2018-12-04T03:28:06.742Z,10.96
2018-12-04T03:29:06.991Z,11.04
2018-12-04T03:30:06.990Z,10.97
2018-12-04T03:31:07.227Z,11.07
2018-12-04T03:32:07.242Z,11.07
2018-12-04T03:33:07.323Z,10.97
2018-12-04T03:34:07.208Z,10.97
2018-12-04T03:35:06.752Z,10.97
2018-12-04T03:36:07.235Z,10.97
2018-12-04T03:37:06.963Z,11
2018-12-04T03:38:07.198Z,10.96
2018-12-04T03:39:06.960Z,11
2018-12-04T03:40:07.210Z,11.04
2018-12-04T03:41:07.211Z,11
2018-12-04T03:42:06.927Z,11.05
2018-12-04T03:43:07.207Z,11.05
2018-12-04T03:44:06.915Z,11.08
2018-12-04T03:45:07.159Z,11.11
2018-12-04T03:46:07.156Z,11.07
2018-12-04T03:47:07.160Z,11.08
2018-12-04T03:48:06.925Z,11.12
2018-12-04T03:49:07.141Z,11.08
2018-12-04T03:50:07.149Z,11.04
2018-12-04T03:51:06.905Z,11.07
2018-12-04T03:52:06.942Z,10.96
2018-12-04T03:53:06.883Z,11.17
2018-12-04T03:54:06.892Z,11.1
2018-12-04T03:55:06.884Z,11.1
2018-12-04T03:56:06.634Z,11.15
2018-12-04T03:57:06.890Z,11.14
2018-12-04T03:58:06.853Z,11.11
2018-12-04T03:59:07.116Z,11.22
2018-12-04T04:00:06.845Z,11.17
2018-12-04T04:01:06.850Z,11.22
2018-12-04T04:02:07.100Z,11.17
2018-12-04T04:03:06.598Z,11.15
2018-12-04T04:04:07.091Z,11.18
2018-12-04T04:05:07.079Z,11.12
2018-12-04T04:06:06.843Z,11.1
2018-12-04T04:07:07.095Z,11.1
2018-12-04T04:08:06.829Z,11.17
2018-12-04T04:09:07.056Z,11.18
2018-12-04T04:10:06.818Z,11.1
2018-12-04T04:11:06.820Z,11.1
2018-12-04T04:12:07.049Z,11.14
2018-12-04T04:13:06.537Z,11.12
2018-12-04T04:14:07.025Z,11.08
2018-12-04T04:15:06.780Z,11.02
2018-12-04T04:16:07.044Z,11.05
2018-12-04T04:17:07.026Z,11.02
2018-12-04T04:18:07.026Z,11.08
2018-12-04T04:19:07.021Z,11.04
2018-12-04T04:20:06.509Z,10.96
2018-12-04T04:21:07.013Z,11.12
2018-12-04T04:22:07.024Z,11.04
2018-12-04T04:23:06.759Z,11.05
2018-12-04T04:24:06.738Z,11.07
2018-12-04T04:25:06.737Z,11.08
2018-12-04T04:26:06.974Z,11.1
2018-12-04T04:27:06.729Z,11.07
2018-12-04T04:28:06.978Z,11.07
2018-12-04T04:29:06.471Z,11.11
2018-12-04T04:30:06.995Z,11.12
2018-12-04T04:31:06.714Z,11.04
2018-12-04T04:32:06.459Z,11
2018-12-04T04:33:06.978Z,10.94
2018-12-04T04:34:06.717Z,11.08
2018-12-04T04:35:06.446Z,11
2018-12-04T04:36:06.939Z,10.99
2018-12-04T04:37:06.953Z,10.86
2018-12-04T04:38:06.942Z,10.92
2018-12-04T04:39:06.925Z,10.78
2018-12-04T04:40:06.690Z,10.86
2018-12-04T04:41:06.665Z,10.79
2018-12-04T04:42:06.779Z,10.79
2018-12-04T04:43:06.678Z,10.82
2018-12-04T04:44:06.683Z,10.79
2018-12-04T04:45:06.661Z,10.72
2018-12-04T04:46:06.677Z,10.76
2018-12-04T04:47:06.903Z,10.74
2018-12-04T04:48:06.888Z,10.69
2018-12-04T04:49:06.674Z,10.71
2018-12-04T04:50:06.898Z,10.79
2018-12-04T04:51:06.711Z,10.79
2018-12-04T04:52:06.667Z,10.78
2018-12-04T04:53:06.894Z,10.74
2018-12-04T04:54:06.609Z,10.79
2018-12-04T04:55:06.611Z,10.82
2018-12-04T04:56:06.847Z,10.82
2018-12-04T04:57:06.602Z,10.75
2018-12-04T04:58:06.848Z,10.76
2018-12-04T04:59:06.598Z,10.87
2018-12-04T05:00:06.845Z,10.87
2018-12-04T05:01:06.822Z,10.9
2018-12-04T05:02:06.816Z,10.82
2018-12-04T05:03:06.568Z,10.82
2018-12-04T05:04:06.554Z,10.9
2018-12-04T05:05:06.568Z,10.9
2018-12-04T05:06:06.798Z,10.87
2018-12-04T05:07:06.546Z,10.89
2018-12-04T05:08:06.791Z,10.93
2018-12-04T05:09:06.795Z,10.93
2018-12-04T05:10:06.805Z,10.89
2018-12-04T05:11:06.772Z,10.94
2018-12-04T05:12:06.773Z,10.82
2018-12-04T05:13:06.529Z,10.87
2018-12-04T05:14:06.589Z,10.87
2018-12-04T05:15:06.538Z,10.81
2018-12-04T05:16:06.509Z,10.76
2018-12-04T05:17:06.759Z,10.82
2018-12-04T05:18:06.258Z,10.81
2018-12-04T05:19:06.751Z,10.9
2018-12-04T05:20:06.483Z,10.82
2018-12-04T05:21:06.745Z,10.82
2018-12-04T05:22:06.745Z,10.78
2018-12-04T05:23:06.473Z,10.82
2018-12-04T05:24:06.472Z,10.84
2018-12-04T05:25:06.472Z,10.81
2018-12-04T05:26:06.229Z,10.82
2018-12-04T05:27:06.212Z,10.84
2018-12-04T05:28:06.705Z,10.81
2018-12-04T05:29:06.750Z,10.76
2018-12-04T05:30:06.434Z,10.76
2018-12-04T05:31:06.686Z,10.78
2018-12-04T05:32:06.439Z,10.81
2018-12-04T05:33:06.437Z,10.81
2018-12-04T05:34:06.421Z,10.81
2018-12-04T05:35:10.434Z,10.75
2018-12-04T05:36:06.681Z,10.81
2018-12-04T05:37:06.669Z,10.76
2018-12-04T05:38:06.414Z,10.74
2018-12-04T05:39:06.647Z,10.74
2018-12-04T05:40:06.648Z,10.75
2018-12-04T05:41:06.405Z,10.76
2018-12-04T05:42:06.137Z,10.74
2018-12-04T05:43:06.422Z,10.75
2018-12-04T05:44:06.649Z,10.71
2018-12-04T05:45:06.639Z,10.64
2018-12-04T05:46:06.437Z,10.72
2018-12-04T05:47:06.608Z,10.64
2018-12-04T05:48:06.607Z,10.54
2018-12-04T05:49:06.368Z,10.6
2018-12-04T05:50:06.618Z,10.59
2018-12-04T05:51:06.135Z,10.6
2018-12-04T05:52:06.585Z,10.6
2018-12-04T05:53:06.584Z,10.63
2018-12-04T05:54:06.335Z,10.56
2018-12-04T05:55:06.332Z,10.57
2018-12-04T05:56:06.337Z,10.6
2018-12-04T05:57:06.342Z,10.57
2018-12-04T05:58:06.570Z,10.6
2018-12-04T05:59:06.302Z,10.6
2018-12-04T06:00:06.558Z,10.61
2018-12-04T06:01:06.299Z,10.61
2018-12-04T06:02:06.307Z,10.6
2018-12-04T06:03:06.300Z,10.6
2018-12-04T06:04:06.283Z,10.56
2018-12-04T06:05:06.525Z,10.6
2018-12-04T06:06:06.540Z,10.53
2018-12-04T06:07:06.513Z,10.51
2018-12-04T06:08:06.265Z,10.53
2018-12-04T06:09:06.577Z,10.54
2018-12-04T06:10:06.491Z,10.53
2018-12-04T06:11:06.488Z,10.54
2018-12-04T06:12:06.488Z,10.57
2018-12-04T06:13:06.244Z,10.54
2018-12-04T06:14:06.238Z,10.56
2018-12-04T06:15:06.232Z,10.56
2018-12-04T06:16:06.256Z,10.59
2018-12-04T06:17:06.212Z,10.59
2018-12-04T06:18:06.210Z,10.63
2018-12-04T06:19:06.451Z,10.59
2018-12-04T06:20:06.199Z,10.57
2018-12-04T06:21:06.443Z,10.61
2018-12-04T06:22:06.474Z,10.54
2018-12-04T06:23:06.179Z,10.6
2018-12-04T06:24:06.439Z,10.59
2018-12-04T06:25:06.460Z,10.59
2018-12-04T06:26:06.179Z,10.6
2018-12-04T06:27:06.436Z,10.56
2018-12-04T06:28:06.164Z,10.6
2018-12-04T06:29:06.416Z,10.6
2018-12-04T06:30:06.402Z,10.6
2018-12-04T06:31:06.959Z,10.56
2018-12-04T06:32:06.389Z,10.59
2018-12-04T06:33:06.388Z,10.59
2018-12-04T06:34:06.141Z,10.56
2018-12-04T06:35:06.124Z,10.61
2018-12-04T06:36:06.213Z,10.53
2018-12-04T06:37:06.130Z,10.56
2018-12-04T06:38:06.366Z,10.6
2018-12-04T06:39:06.367Z,10.57
2018-12-04T06:40:06.115Z,10.57
2018-12-04T06:41:05.869Z,10.44
2018-12-04T06:42:06.342Z,10.51
2018-12-04T06:43:06.100Z,10.57
2018-12-04T06:44:06.088Z,10.51
2018-12-04T06:45:06.357Z,10.41
2018-12-04T06:46:06.325Z,10.44
2018-12-04T06:47:06.075Z,10.44
2018-12-04T06:48:06.332Z,10.37
2018-12-04T06:49:06.060Z,10.41
2018-12-04T06:50:06.058Z,10.34
2018-12-04T06:51:07.439Z,10.38
2018-12-04T06:52:06.286Z,10.35
2018-12-04T06:53:06.049Z,10.34
2018-12-04T06:54:06.275Z,10.4
2018-12-04T06:55:06.273Z,10.4
2018-12-04T06:56:06.028Z,10.3
2018-12-04T06:57:06.276Z,10.33
2018-12-04T06:58:06.306Z,10.28
2018-12-04T06:59:06.015Z,10.28
2018-12-04T07:00:06.008Z,10.31
2018-12-04T07:01:06.254Z,10.3
2018-12-04T07:02:06.237Z,10.25
2018-12-04T07:03:06.236Z,10.3
2018-12-04T07:04:06.253Z,10.31
2018-12-04T07:05:06.241Z,10.25
2018-12-04T07:06:06.235Z,10.31
2018-12-04T07:07:06.261Z,10.19
2018-12-04T07:08:05.975Z,10.23
2018-12-04T07:09:05.971Z,10.23
2018-12-04T07:10:06.201Z,10.23
2018-12-04T07:11:07.044Z,10.19
2018-12-04T07:12:07.198Z,10.22
2018-12-04T07:13:06.187Z,10.22
2018-12-04T07:14:06.203Z,10.12
2018-12-04T07:15:05.944Z,10.1
2018-12-04T07:16:06.171Z,10.17
2018-12-04T07:17:05.956Z,10.16
2018-12-04T07:18:06.171Z,10.3
2018-12-04T07:19:05.915Z,10.1
2018-12-04T07:20:05.919Z,10.09
2018-12-04T07:21:05.901Z,10.3
2018-12-04T07:22:06.156Z,10.12
2018-12-04T07:23:05.924Z,10.12
2018-12-04T07:24:05.884Z,10.19
2018-12-04T07:25:06.122Z,10.16
2018-12-04T07:26:05.919Z,10.15
2018-12-04T07:27:06.142Z,10.07
2018-12-04T07:28:05.867Z,10.09
2018-12-04T07:29:05.882Z,10.09
2018-12-04T07:30:06.141Z,10.19
2018-12-04T07:31:06.107Z,10.13
2018-12-04T07:32:05.865Z,10.2
2018-12-04T07:33:06.098Z,10.23
2018-12-04T07:34:05.604Z,10.23
2018-12-04T07:35:05.597Z,10.25
2018-12-04T07:36:06.086Z,10.17
2018-12-04T07:37:05.839Z,10.17
2018-12-04T07:38:05.822Z,10.23
2018-12-04T07:39:05.834Z,10.22
2018-12-04T07:40:06.056Z,10.07
2018-12-04T07:41:05.831Z,10.26
2018-12-04T07:42:05.791Z,10.17
2018-12-04T07:43:05.797Z,10.12
2018-12-04T07:44:05.540Z,10.16
2018-12-04T07:45:05.775Z,10.22
2018-12-04T07:46:05.820Z,10.17
2018-12-04T07:47:05.768Z,10.16
2018-12-04T07:48:06.046Z,10.13
2018-12-04T07:49:06.023Z,10.19
2018-12-04T07:50:06.000Z,10.17
2018-12-04T07:51:06.015Z,10.15
2018-12-04T07:52:06.000Z,10.15
2018-12-04T07:53:05.996Z,10.13
2018-12-04T07:54:05.739Z,10.17
2018-12-04T07:55:05.973Z,10.23
2018-12-04T07:56:07.176Z,10.15
2018-12-04T07:57:05.971Z,10.12
2018-12-04T07:58:05.725Z,10.13
2018-12-04T07:59:05.705Z,10.19
2018-12-04T08:00:05.468Z,10.2
2018-12-04T08:01:05.454Z,10.19
2018-12-04T08:02:05.706Z,10.19
2018-12-04T08:03:05.955Z,10.23
2018-12-04T08:04:05.691Z,10.2
2018-12-04T08:05:05.689Z,10.2
2018-12-04T08:06:05.681Z,10.31
2018-12-04T08:07:05.672Z,10.33
2018-12-04T08:08:05.906Z,10.26
2018-12-04T08:09:05.650Z,10.28
2018-12-04T08:10:05.655Z,10.31
2018-12-04T08:11:05.894Z,10.3
2018-12-04T08:12:05.651Z,10.38
2018-12-04T08:13:05.630Z,10.4
2018-12-04T08:14:05.633Z,10.35
2018-12-04T08:15:05.876Z,10.41
2018-12-04T08:16:05.614Z,10.37
2018-12-04T08:17:05.612Z,10.4
2018-12-04T08:18:05.627Z,10.44
2018-12-04T08:19:05.868Z,10.56
2018-12-04T08:20:05.595Z,10.48
2018-12-04T08:21:05.589Z,10.48
2018-12-04T08:22:05.852Z,10.59
2018-12-04T08:23:05.628Z,10.57
2018-12-04T08:24:05.820Z,10.6
2018-12-04T08:25:05.586Z,10.57
2018-12-04T08:26:05.376Z,10.76
2018-12-04T08:27:05.812Z,10.75
2018-12-04T08:28:05.823Z,10.69
2018-12-04T08:29:05.825Z,10.76
2018-12-04T08:30:05.808Z,10.72
2018-12-04T08:31:05.800Z,10.84
2018-12-04T08:32:05.806Z,10.84
2018-12-04T08:33:05.807Z,10.82
2018-12-04T08:34:05.792Z,10.72
2018-12-04T08:35:05.547Z,10.72
2018-12-04T08:36:05.538Z,10.74
2018-12-04T08:37:06.743Z,10.81
2018-12-04T08:38:05.760Z,10.74
2018-12-04T08:39:05.780Z,10.69
2018-12-04T08:40:05.517Z,10.71
2018-12-04T08:41:05.769Z,10.76
2018-12-04T08:42:05.493Z,10.76
2018-12-04T08:43:05.499Z,10.79
2018-12-04T08:44:05.482Z,10.82
2018-12-04T08:45:05.723Z,10.78
2018-12-04T08:46:05.483Z,10.94
2018-12-04T08:47:05.479Z,10.9
2018-12-04T08:48:05.474Z,10.89
2018-12-04T08:49:05.480Z,10.96
2018-12-04T08:50:05.295Z,10.94
2018-12-04T08:51:05.707Z,10.97
2018-12-04T08:52:05.457Z,11.07
2018-12-04T08:53:05.471Z,10.97
2018-12-04T08:54:05.711Z,11.05
2018-12-04T08:55:05.437Z,10.94
2018-12-04T08:56:05.210Z,11.04
2018-12-04T08:57:05.694Z,11.05
2018-12-04T08:58:05.666Z,11.11
2018-12-04T08:59:05.669Z,11.1
2018-12-04T09:00:05.169Z,11.1
2018-12-04T09:01:05.857Z,11.14
2018-12-04T09:02:05.659Z,11.11
2018-12-04T09:03:05.561Z,11.15
2018-12-04T09:04:05.419Z,11.12
2018-12-04T09:05:05.413Z,11.19
2018-12-04T09:06:05.407Z,11.22
2018-12-04T09:07:06.477Z,11.23
2018-12-04T09:08:09.249Z,11.26
2018-12-04T09:09:05.629Z,11.11
2018-12-04T09:10:05.383Z,11.15
2018-12-04T09:11:05.365Z,11.12
2018-12-04T09:12:05.620Z,11.17
2018-12-04T09:13:05.378Z,11.23
2018-12-04T09:14:05.381Z,11.29
2018-12-04T09:15:05.614Z,11.32
2018-12-04T09:16:05.363Z,11.35
2018-12-04T09:17:05.598Z,11.43
2018-12-04T09:18:05.110Z,11.35
2018-12-04T09:19:05.633Z,11.25
2018-12-04T09:20:05.625Z,11.3
2018-12-04T09:21:05.874Z,11.3
2018-12-04T09:22:05.775Z,11.37
2018-12-04T09:23:05.746Z,11.22
2018-12-04T09:24:05.731Z,11.26
2018-12-04T09:25:05.196Z,11.22
2018-12-04T09:26:05.651Z,11.25
2018-12-04T09:27:10.326Z,11.12
2018-12-04T09:28:05.648Z,11.17
2018-12-04T09:29:05.652Z,11.19
2018-12-04T09:30:05.239Z,11.17
2018-12-04T09:31:05.287Z,11.22
2018-12-04T09:32:05.286Z,11.17
2018-12-04T09:33:05.281Z,11.15
2018-12-04T09:34:05.271Z,11.12
2018-12-04T09:35:05.519Z,11.17
2018-12-04T09:36:05.006Z,11.12
2018-12-04T09:37:05.253Z,11.17
2018-12-04T09:38:05.263Z,11.17
2018-12-04T09:39:05.252Z,11.1
2018-12-04T09:40:05.242Z,11.14
2018-12-04T09:41:05.529Z,11.14
2018-12-04T09:42:05.494Z,11.17
2018-12-04T09:43:08.752Z,11.04
2018-12-04T09:44:05.487Z,11.12
2018-12-04T09:45:05.482Z,11.12
2018-12-04T09:46:05.228Z,11.18
2018-12-04T09:47:05.225Z,11.12
2018-12-04T09:48:05.230Z,11.15
2018-12-04T09:49:05.461Z,11.27
2018-12-04T09:50:05.286Z,11.29
2018-12-04T09:51:05.472Z,11.36
2018-12-04T09:52:05.492Z,11.35
2018-12-04T09:53:04.966Z,11.3
2018-12-04T09:54:05.186Z,11.45
2018-12-04T09:55:04.943Z,11.37
2018-12-04T09:56:05.171Z,11.52
2018-12-04T09:57:05.181Z,11.6
2018-12-04T09:58:04.920Z,11.66
2018-12-04T09:59:04.961Z,11.75
2018-12-04T10:00:05.408Z,11.83
2018-12-04T10:01:05.405Z,11.91
2018-12-04T10:02:05.183Z,11.95
2018-12-04T10:03:05.430Z,11.95
2018-12-04T10:04:05.150Z,11.91
2018-12-04T10:05:04.947Z,11.88
2018-12-04T10:06:05.396Z,11.87
2018-12-04T10:07:05.127Z,11.91
2018-12-04T10:08:05.134Z,11.84
2018-12-04T10:09:05.378Z,12.02
2018-12-04T10:10:05.651Z,12.09
2018-12-04T10:11:05.113Z,12.12
2018-12-04T10:12:04.861Z,12.09
2018-12-04T10:13:05.115Z,11.99
2018-12-04T10:14:05.103Z,11.81
2018-12-04T10:15:05.126Z,11.8
2018-12-04T10:16:05.110Z,11.66
2018-12-04T10:17:05.350Z,11.68
2018-12-04T10:18:05.350Z,11.69
2018-12-04T10:19:05.356Z,11.54
2018-12-04T10:20:05.347Z,11.62
2018-12-04T10:21:05.107Z,11.52
2018-12-04T10:22:05.182Z,11.52
2018-12-04T10:23:05.080Z,11.52
2018-12-04T10:24:05.335Z,11.47
2018-12-04T10:25:04.825Z,11.51
2018-12-04T10:26:05.365Z,11.4
2018-12-04T10:27:04.818Z,11.51
2018-12-04T10:28:04.807Z,11.35
2018-12-04T10:29:05.049Z,11.43
2018-12-04T10:30:05.046Z,11.32
2018-12-04T10:31:05.044Z,11.4
2018-12-04T10:32:05.282Z,11.36
2018-12-04T10:33:05.041Z,11.3
2018-12-04T10:34:05.034Z,11.35
2018-12-04T10:35:05.284Z,11.32
2018-12-04T10:36:05.306Z,11.27
2018-12-04T10:37:05.046Z,11.33
2018-12-04T10:38:04.833Z,11.33
2018-12-04T10:39:05.281Z,11.33
2018-12-04T10:40:04.772Z,11.32
2018-12-04T10:41:05.008Z,11.35
2018-12-04T10:42:05.014Z,11.33
2018-12-04T10:43:04.754Z,11.43
2018-12-04T10:44:05.243Z,11.47
2018-12-04T10:45:04.984Z,11.41
2018-12-04T10:46:05.224Z,11.43
2018-12-04T10:47:05.228Z,11.41
2018-12-04T10:48:05.223Z,11.43
2018-12-04T10:49:05.220Z,11.4
2018-12-04T10:50:04.979Z,11.41
2018-12-04T10:51:05.240Z,11.43
2018-12-04T10:52:04.966Z,11.35
2018-12-04T10:53:04.953Z,11.43
2018-12-04T10:54:05.198Z,11.32
2018-12-04T10:55:05.211Z,11.29
2018-12-04T10:56:05.184Z,11.19
2018-12-04T10:57:09.741Z,11.14
2018-12-04T10:58:04.712Z,11.12
2018-12-04T10:59:04.950Z,11.08
2018-12-04T11:00:05.976Z,11.1
2018-12-04T11:01:04.924Z,10.94
2018-12-04T11:02:04.934Z,10.99
2018-12-04T11:03:04.925Z,10.79
2018-12-04T11:04:05.159Z,10.84
2018-12-04T11:05:04.919Z,10.74
2018-12-04T11:06:04.897Z,10.74
2018-12-04T11:07:05.137Z,10.71
2018-12-04T11:08:04.679Z,10.68
2018-12-04T11:09:04.884Z,10.76
2018-12-04T11:10:04.626Z,10.74
2018-12-04T11:11:04.660Z,10.75
2018-12-04T11:12:04.864Z,10.74
2018-12-04T11:13:05.117Z,10.68
2018-12-04T11:14:05.109Z,10.71
2018-12-04T11:15:04.870Z,10.71
2018-12-04T11:16:04.892Z,10.78
2018-12-04T11:17:04.606Z,10.71
2018-12-04T11:18:04.848Z,10.71
2018-12-04T11:19:05.086Z,10.68
2018-12-04T11:20:04.863Z,10.61
2018-12-04T11:21:04.836Z,10.64
2018-12-04T11:22:04.849Z,10.57
2018-12-04T11:23:04.566Z,10.63
2018-12-04T11:24:04.561Z,10.59
2018-12-04T11:25:05.561Z,10.59
2018-12-04T11:26:04.823Z,10.63
2018-12-04T11:27:05.089Z,10.59
2018-12-04T11:28:05.047Z,10.61
2018-12-04T11:29:05.034Z,10.54
2018-12-04T11:30:04.783Z,10.64
2018-12-04T11:31:04.782Z,10.59
2018-12-04T11:32:04.770Z,10.61
2018-12-04T11:33:04.766Z,10.6
2018-12-04T11:34:05.018Z,10.57
2018-12-04T11:35:04.755Z,10.57
2018-12-04T11:36:04.996Z,10.64
2018-12-04T11:37:04.852Z,10.61
2018-12-04T11:38:04.743Z,10.61
2018-12-04T11:39:05.026Z,10.68
2018-12-04T11:40:04.983Z,10.72
2018-12-04T11:41:04.476Z,10.75
2018-12-04T11:42:04.476Z,10.72
2018-12-04T11:43:04.966Z,10.68
2018-12-04T11:44:04.470Z,10.74
2018-12-04T11:45:04.472Z,10.68
2018-12-04T11:46:04.711Z,10.74
2018-12-04T11:47:04.701Z,10.75
2018-12-04T11:48:04.708Z,10.79
2018-12-04T11:49:04.687Z,10.75
2018-12-04T11:50:04.701Z,10.72
2018-12-04T11:51:04.924Z,10.71
2018-12-04T11:52:04.694Z,10.75
2018-12-04T11:53:04.425Z,10.78
2018-12-04T11:54:04.918Z,10.76
2018-12-04T11:55:04.651Z,10.78
2018-12-04T11:56:04.646Z,10.71
2018-12-04T11:57:04.890Z,10.72
2018-12-04T11:58:04.675Z,10.72
2018-12-04T11:59:04.886Z,10.74
2018-12-04T12:00:04.903Z,10.75
2018-12-04T12:01:04.876Z,10.74
2018-12-04T12:02:04.612Z,10.76
2018-12-04T12:03:04.900Z,10.76
2018-12-04T12:04:04.598Z,10.76
2018-12-04T12:05:04.614Z,10.81
2018-12-04T12:06:04.397Z,10.82
2018-12-04T12:07:04.842Z,10.81
2018-12-04T12:08:04.622Z,10.81
2018-12-04T12:09:04.597Z,10.92
2018-12-04T12:10:05.473Z,10.84
2018-12-04T12:11:04.576Z,10.81
2018-12-04T12:12:04.837Z,10.81
2018-12-04T12:13:04.861Z,10.76
2018-12-04T12:14:04.330Z,10.78
2018-12-04T12:15:04.311Z,10.74
2018-12-04T12:16:04.811Z,10.71
2018-12-04T12:17:04.570Z,10.56
2018-12-04T12:18:04.543Z,10.53
2018-12-04T12:19:04.795Z,10.54
2018-12-04T12:20:04.541Z,10.4
2018-12-04T12:21:04.542Z,10.35
2018-12-04T12:22:04.791Z,10.33
2018-12-04T12:23:04.532Z,10.26
2018-12-04T12:24:04.535Z,10.3
2018-12-04T12:25:04.535Z,10.16
2018-12-04T12:26:04.760Z,10.22
2018-12-04T12:27:04.254Z,10.15
2018-12-04T12:28:04.737Z,10.09
2018-12-04T12:29:04.508Z,10.17
2018-12-04T12:30:04.740Z,10.17
2018-12-04T12:31:04.728Z,10.12
2018-12-04T12:32:04.728Z,10.02
2018-12-04T12:33:04.717Z,10.19
2018-12-04T12:34:04.767Z,10.12
2018-12-04T12:35:04.730Z,10.07
2018-12-04T12:36:04.718Z,9.97
2018-12-04T12:37:04.695Z,9.98
2018-12-04T12:38:04.691Z,10.01
2018-12-04T12:39:04.703Z,10.01
2018-12-04T12:40:04.691Z,9.92
2018-12-04T12:41:04.179Z,9.91
2018-12-04T12:42:04.662Z,9.94
2018-12-04T12:43:04.658Z,9.89
2018-12-04T12:44:04.665Z,9.87
2018-12-04T12:45:04.673Z,9.83
2018-12-04T12:46:04.646Z,9.77
2018-12-04T12:47:04.400Z,9.77
2018-12-04T12:48:04.658Z,9.77
2018-12-04T12:49:04.646Z,9.76
2018-12-04T12:50:04.650Z,9.77
2018-12-04T12:51:04.379Z,9.79
2018-12-04T12:52:04.384Z,9.82
2018-12-04T12:53:04.381Z,9.76
2018-12-04T12:54:04.607Z,9.76
2018-12-04T12:55:04.600Z,9.74
2018-12-04T12:56:04.596Z,9.77